sensor_id;sensor_type;location;lat;lon;timestamp;P1;durP1;ratioP1;P2;durP2;ratioP2
16660;SDS011;8444;52.012;5.048;2022-09-09T00:09:16;1.73;;;1.50;;
16660;SDS011;8444;52.012;5.048;2022-09-09T00:11:49;4.88;;;2.75;;
16660;SDS011;8444;52.012;5.048;2022-09-09T00:14:18;4.47;;;1.90;;
16660;SDS011;8444;52.012;5.048;2022-09-09T00:16:49;3.47;;;1.70;;
16660;SDS011;8444;52.012;5.048;2022-09-09T00:19:17;2.50;;;1.60;;
16660;SDS011;8444;52.012;5.048;2022-09-09T00:22:47;2.53;;;1.60;;
16660;SDS011;8444;52.012;5.048;2022-09-09T00:24:48;3.15;;;1.30;;
16660;SDS011;8444;52.012;5.048;2022-09-09T00:29:47;4.50;;;2.03;;
16660;SDS011;8444;52.012;5.048;2022-09-09T00:32:17;3.15;;;1.80;;
16660;SDS011;8444;52.012;5.048;2022-09-09T00:35:03;3.65;;;1.77;;
16660;SDS011;8444;52.012;5.048;2022-09-09T00:37:30;2.72;;;1.42;;
16660;SDS011;8444;52.012;5.048;2022-09-09T00:39:57;3.42;;;1.90;;
16660;SDS011;8444;52.012;5.048;2022-09-09T00:42:25;4.53;;;2.28;;
16660;SDS011;8444;52.012;5.048;2022-09-09T00:44:53;2.97;;;2.40;;
16660;SDS011;8444;52.012;5.048;2022-09-09T00:57:31;3.90;;;2.10;;
16660;SDS011;8444;52.012;5.048;2022-09-09T00:59:58;4.35;;;2.17;;
16660;SDS011;8444;52.012;5.048;2022-09-09T01:02:28;2.88;;;2.05;;
16660;SDS011;8444;52.012;5.048;2022-09-09T01:04:53;4.20;;;2.47;;
16660;SDS011;8444;52.012;5.048;2022-09-09T01:07:19;5.10;;;2.70;;
16660;SDS011;8444;52.012;5.048;2022-09-09T01:12:22;4.75;;;3.00;;
16660;SDS011;8444;52.012;5.048;2022-09-09T01:14:49;4.40;;;2.47;;
16660;SDS011;8444;52.012;5.048;2022-09-09T01:17:19;3.60;;;2.90;;
16660;SDS011;8444;52.012;5.048;2022-09-09T01:24:41;3.92;;;2.72;;
16660;SDS011;8444;52.012;5.048;2022-09-09T01:27:08;4.50;;;2.88;;
16660;SDS011;8444;52.012;5.048;2022-09-09T01:29:35;8.80;;;4.55;;
16660;SDS011;8444;52.012;5.048;2022-09-09T01:32:47;4.15;;;3.40;;
16660;SDS011;8444;52.012;5.048;2022-09-09T01:34:46;5.30;;;3.40;;
16660;SDS011;8444;52.012;5.048;2022-09-09T01:37:11;5.07;;;3.55;;
16660;SDS011;8444;52.012;5.048;2022-09-09T01:39:37;5.20;;;3.60;;
16660;SDS011;8444;52.012;5.048;2022-09-09T01:42:03;4.25;;;3.20;;
16660;SDS011;8444;52.012;5.048;2022-09-09T01:44:30;4.25;;;3.28;;
16660;SDS011;8444;52.012;5.048;2022-09-09T01:46:55;5.82;;;3.90;;
16660;SDS011;8444;52.012;5.048;2022-09-09T01:49:20;7.30;;;4.28;;
16660;SDS011;8444;52.012;5.048;2022-09-09T01:51:46;5.80;;;3.75;;
16660;SDS011;8444;52.012;5.048;2022-09-09T01:54:14;7.22;;;3.85;;
16660;SDS011;8444;52.012;5.048;2022-09-09T01:59:11;5.78;;;4.15;;
16660;SDS011;8444;52.012;5.048;2022-09-09T02:04:05;8.02;;;4.43;;
16660;SDS011;8444;52.012;5.048;2022-09-09T02:06:34;6.78;;;4.78;;
16660;SDS011;8444;52.012;5.048;2022-09-09T02:09:00;6.88;;;4.60;;
16660;SDS011;8444;52.012;5.048;2022-09-09T02:11:27;8.57;;;5.15;;
16660;SDS011;8444;52.012;5.048;2022-09-09T02:13:54;8.20;;;5.00;;
16660;SDS011;8444;52.012;5.048;2022-09-09T02:16:26;6.35;;;4.90;;
16660;SDS011;8444;52.012;5.048;2022-09-09T02:21:27;6.43;;;4.32;;
16660;SDS011;8444;52.012;5.048;2022-09-09T02:23:53;10.95;;;6.03;;
16660;SDS011;8444;52.012;5.048;2022-09-09T02:26:21;6.22;;;4.40;;
16660;SDS011;8444;52.012;5.048;2022-09-09T02:28:48;5.53;;;4.55;;
16660;SDS011;8444;52.012;5.048;2022-09-09T02:31:15;10.63;;;5.10;;
16660;SDS011;8444;52.012;5.048;2022-09-09T02:33:45;7.72;;;4.03;;
16660;SDS011;8444;52.012;5.048;2022-09-09T02:36:12;5.97;;;4.35;;
16660;SDS011;8444;52.012;5.048;2022-09-09T02:38:42;8.35;;;4.45;;
16660;SDS011;8444;52.012;5.048;2022-09-09T02:41:10;7.95;;;4.40;;
16660;SDS011;8444;52.012;5.048;2022-09-09T02:43:35;6.32;;;4.32;;
16660;SDS011;8444;52.012;5.048;2022-09-09T02:46:03;5.65;;;4.55;;
16660;SDS011;8444;52.012;5.048;2022-09-09T02:48:39;6.53;;;4.45;;
16660;SDS011;8444;52.012;5.048;2022-09-09T02:53:50;6.30;;;4.22;;
16660;SDS011;8444;52.012;5.048;2022-09-09T02:56:20;7.13;;;4.25;;
16660;SDS011;8444;52.012;5.048;2022-09-09T02:58:46;5.80;;;4.03;;
16660;SDS011;8444;52.012;5.048;2022-09-09T03:01:11;5.80;;;4.22;;
16660;SDS011;8444;52.012;5.048;2022-09-09T03:03:37;6.07;;;3.67;;
16660;SDS011;8444;52.012;5.048;2022-09-09T03:06:03;5.20;;;3.70;;
16660;SDS011;8444;52.012;5.048;2022-09-09T03:08:28;6.22;;;4.20;;
16660;SDS011;8444;52.012;5.048;2022-09-09T03:10:54;4.85;;;3.47;;
16660;SDS011;8444;52.012;5.048;2022-09-09T03:13:19;8.93;;;4.57;;
16660;SDS011;8444;52.012;5.048;2022-09-09T03:15:44;6.45;;;4.30;;
16660;SDS011;8444;52.012;5.048;2022-09-09T03:18:10;5.38;;;4.30;;
16660;SDS011;8444;52.012;5.048;2022-09-09T03:20:35;6.30;;;3.95;;
16660;SDS011;8444;52.012;5.048;2022-09-09T03:23:00;7.75;;;4.03;;
16660;SDS011;8444;52.012;5.048;2022-09-09T03:25:25;6.75;;;3.45;;
16660;SDS011;8444;52.012;5.048;2022-09-09T03:27:51;5.13;;;3.72;;
16660;SDS011;8444;52.012;5.048;2022-09-09T03:30:19;5.35;;;3.63;;
16660;SDS011;8444;52.012;5.048;2022-09-09T03:32:44;4.30;;;3.42;;
16660;SDS011;8444;52.012;5.048;2022-09-09T03:35:09;8.02;;;3.97;;
16660;SDS011;8444;52.012;5.048;2022-09-09T03:37:34;7.00;;;3.75;;
16660;SDS011;8444;52.012;5.048;2022-09-09T03:40:00;4.38;;;3.40;;
16660;SDS011;8444;52.012;5.048;2022-09-09T03:42:25;7.20;;;3.92;;
16660;SDS011;8444;52.012;5.048;2022-09-09T03:44:51;6.47;;;3.63;;
16660;SDS011;8444;52.012;5.048;2022-09-09T03:47:17;5.00;;;3.45;;
16660;SDS011;8444;52.012;5.048;2022-09-09T03:49:43;9.77;;;4.60;;
16660;SDS011;8444;52.012;5.048;2022-09-09T03:52:08;8.27;;;3.60;;
16660;SDS011;8444;52.012;5.048;2022-09-09T03:54:33;5.25;;;3.75;;
16660;SDS011;8444;52.012;5.048;2022-09-09T03:56:59;6.55;;;4.38;;
16660;SDS011;8444;52.012;5.048;2022-09-09T03:59:24;5.25;;;4.28;;
16660;SDS011;8444;52.012;5.048;2022-09-09T04:01:50;6.38;;;3.67;;
16660;SDS011;8444;52.012;5.048;2022-09-09T04:04:16;5.68;;;4.10;;
16660;SDS011;8444;52.012;5.048;2022-09-09T04:06:41;7.53;;;4.10;;
16660;SDS011;8444;52.012;5.048;2022-09-09T04:09:06;6.32;;;4.63;;
16660;SDS011;8444;52.012;5.048;2022-09-09T04:11:31;6.70;;;3.90;;
16660;SDS011;8444;52.012;5.048;2022-09-09T04:13:56;4.93;;;3.80;;
16660;SDS011;8444;52.012;5.048;2022-09-09T04:16:21;7.22;;;4.78;;
16660;SDS011;8444;52.012;5.048;2022-09-09T04:18:47;7.80;;;4.10;;
16660;SDS011;8444;52.012;5.048;2022-09-09T04:21:12;5.38;;;4.35;;
16660;SDS011;8444;52.012;5.048;2022-09-09T04:23:37;4.72;;;3.65;;
16660;SDS011;8444;52.012;5.048;2022-09-09T04:26:03;4.75;;;3.92;;
16660;SDS011;8444;52.012;5.048;2022-09-09T04:28:29;6.32;;;3.63;;
16660;SDS011;8444;52.012;5.048;2022-09-09T04:30:55;7.00;;;3.92;;
16660;SDS011;8444;52.012;5.048;2022-09-09T04:33:22;5.75;;;4.15;;
16660;SDS011;8444;52.012;5.048;2022-09-09T04:35:49;7.15;;;4.68;;
16660;SDS011;8444;52.012;5.048;2022-09-09T04:38:15;5.00;;;3.80;;
16660;SDS011;8444;52.012;5.048;2022-09-09T04:40:45;4.70;;;4.10;;
16660;SDS011;8444;52.012;5.048;2022-09-09T04:43:11;8.40;;;4.18;;
16660;SDS011;8444;52.012;5.048;2022-09-09T04:45:36;9.18;;;4.55;;
16660;SDS011;8444;52.012;5.048;2022-09-09T04:48:02;8.15;;;4.75;;
16660;SDS011;8444;52.012;5.048;2022-09-09T04:50:27;8.70;;;4.78;;
16660;SDS011;8444;52.012;5.048;2022-09-09T04:52:53;6.47;;;4.25;;
16660;SDS011;8444;52.012;5.048;2022-09-09T04:55:18;6.97;;;4.75;;
16660;SDS011;8444;52.012;5.048;2022-09-09T04:57:43;4.80;;;4.03;;
16660;SDS011;8444;52.012;5.048;2022-09-09T05:00:09;6.15;;;4.28;;
16660;SDS011;8444;52.012;5.048;2022-09-09T05:02:38;7.38;;;4.35;;
16660;SDS011;8444;52.012;5.048;2022-09-09T05:05:03;6.72;;;3.92;;
16660;SDS011;8444;52.012;5.048;2022-09-09T05:07:28;5.05;;;3.88;;
16660;SDS011;8444;52.012;5.048;2022-09-09T05:09:56;5.82;;;3.50;;
16660;SDS011;8444;52.012;5.048;2022-09-09T05:12:21;4.70;;;3.83;;
16660;SDS011;8444;52.012;5.048;2022-09-09T05:14:48;6.45;;;4.35;;
16660;SDS011;8444;52.012;5.048;2022-09-09T05:17:15;6.32;;;3.85;;
16660;SDS011;8444;52.012;5.048;2022-09-09T05:19:41;7.65;;;3.83;;
16660;SDS011;8444;52.012;5.048;2022-09-09T05:22:06;4.90;;;3.35;;
16660;SDS011;8444;52.012;5.048;2022-09-09T05:24:32;5.07;;;3.45;;
16660;SDS011;8444;52.012;5.048;2022-09-09T05:26:58;5.97;;;3.38;;
16660;SDS011;8444;52.012;5.048;2022-09-09T05:29:25;7.10;;;3.63;;
16660;SDS011;8444;52.012;5.048;2022-09-09T05:31:51;5.05;;;3.08;;
16660;SDS011;8444;52.012;5.048;2022-09-09T05:34:16;8.07;;;3.47;;
16660;SDS011;8444;52.012;5.048;2022-09-09T05:36:41;6.10;;;3.42;;
16660;SDS011;8444;52.012;5.048;2022-09-09T05:39:07;5.38;;;2.95;;
16660;SDS011;8444;52.012;5.048;2022-09-09T05:41:32;6.97;;;3.83;;
16660;SDS011;8444;52.012;5.048;2022-09-09T05:43:57;5.30;;;3.30;;
16660;SDS011;8444;52.012;5.048;2022-09-09T05:46:26;6.38;;;3.47;;
16660;SDS011;8444;52.012;5.048;2022-09-09T05:48:51;6.68;;;2.90;;
16660;SDS011;8444;52.012;5.048;2022-09-09T05:51:18;7.32;;;3.63;;
16660;SDS011;8444;52.012;5.048;2022-09-09T05:53:44;6.00;;;3.33;;
16660;SDS011;8444;52.012;5.048;2022-09-09T05:56:13;7.35;;;3.50;;
16660;SDS011;8444;52.012;5.048;2022-09-09T05:58:39;4.45;;;3.13;;
16660;SDS011;8444;52.012;5.048;2022-09-09T06:01:05;6.45;;;3.13;;
16660;SDS011;8444;52.012;5.048;2022-09-09T06:03:32;5.07;;;3.53;;
16660;SDS011;8444;52.012;5.048;2022-09-09T06:05:58;6.18;;;3.95;;
16660;SDS011;8444;52.012;5.048;2022-09-09T06:08:23;5.40;;;2.92;;
16660;SDS011;8444;52.012;5.048;2022-09-09T06:10:49;5.15;;;3.20;;
16660;SDS011;8444;52.012;5.048;2022-09-09T06:13:14;7.15;;;3.40;;
16660;SDS011;8444;52.012;5.048;2022-09-09T06:15:39;5.55;;;3.13;;
16660;SDS011;8444;52.012;5.048;2022-09-09T06:18:05;5.57;;;3.20;;
16660;SDS011;8444;52.012;5.048;2022-09-09T06:20:30;4.47;;;2.85;;
16660;SDS011;8444;52.012;5.048;2022-09-09T06:22:56;10.45;;;2.80;;
16660;SDS011;8444;52.012;5.048;2022-09-09T06:25:22;8.68;;;3.83;;
16660;SDS011;8444;52.012;5.048;2022-09-09T06:27:50;3.97;;;2.97;;
16660;SDS011;8444;52.012;5.048;2022-09-09T06:30:15;4.10;;;2.78;;
16660;SDS011;8444;52.012;5.048;2022-09-09T06:32:42;5.22;;;2.75;;
16660;SDS011;8444;52.012;5.048;2022-09-09T06:35:07;5.78;;;2.72;;
16660;SDS011;8444;52.012;5.048;2022-09-09T06:37:33;5.82;;;3.08;;
16660;SDS011;8444;52.012;5.048;2022-09-09T06:39:58;5.93;;;2.38;;
16660;SDS011;8444;52.012;5.048;2022-09-09T06:42:23;5.63;;;2.35;;
16660;SDS011;8444;52.012;5.048;2022-09-09T06:44:48;10.73;;;3.17;;
16660;SDS011;8444;52.012;5.048;2022-09-09T06:47:13;5.33;;;2.73;;
16660;SDS011;8444;52.012;5.048;2022-09-09T06:49:38;3.13;;;2.13;;
16660;SDS011;8444;52.012;5.048;2022-09-09T06:52:04;7.53;;;2.20;;
16660;SDS011;8444;52.012;5.048;2022-09-09T06:54:29;5.50;;;1.90;;
16660;SDS011;8444;52.012;5.048;2022-09-09T06:56:54;5.70;;;1.83;;
16660;SDS011;8444;52.012;5.048;2022-09-09T06:59:19;5.87;;;2.10;;
16660;SDS011;8444;52.012;5.048;2022-09-09T07:01:44;6.95;;;2.33;;
16660;SDS011;8444;52.012;5.048;2022-09-09T07:04:10;5.38;;;2.25;;
16660;SDS011;8444;52.012;5.048;2022-09-09T07:06:42;6.25;;;2.17;;
16660;SDS011;8444;52.012;5.048;2022-09-09T07:09:09;3.00;;;1.70;;
16660;SDS011;8444;52.012;5.048;2022-09-09T07:11:42;7.03;;;2.15;;
16660;SDS011;8444;52.012;5.048;2022-09-09T07:14:08;7.72;;;1.92;;
16660;SDS011;8444;52.012;5.048;2022-09-09T07:16:33;6.43;;;2.45;;
16660;SDS011;8444;52.012;5.048;2022-09-09T07:19:01;10.68;;;2.30;;
16660;SDS011;8444;52.012;5.048;2022-09-09T07:21:27;3.10;;;1.60;;
16660;SDS011;8444;52.012;5.048;2022-09-09T07:23:53;5.63;;;2.00;;
16660;SDS011;8444;52.012;5.048;2022-09-09T07:26:20;7.22;;;1.90;;
16660;SDS011;8444;52.012;5.048;2022-09-09T07:28:45;4.40;;;1.60;;
16660;SDS011;8444;52.012;5.048;2022-09-09T07:31:14;7.20;;;1.90;;
16660;SDS011;8444;52.012;5.048;2022-09-09T07:33:41;3.45;;;1.63;;
16660;SDS011;8444;52.012;5.048;2022-09-09T07:36:07;6.63;;;2.10;;
16660;SDS011;8444;52.012;5.048;2022-09-09T07:38:40;3.08;;;1.98;;
16660;SDS011;8444;52.012;5.048;2022-09-09T07:41:06;7.68;;;2.00;;
16660;SDS011;8444;52.012;5.048;2022-09-09T07:43:33;7.75;;;2.15;;
16660;SDS011;8444;52.012;5.048;2022-09-09T07:45:59;5.93;;;2.17;;
16660;SDS011;8444;52.012;5.048;2022-09-09T07:48:26;8.57;;;3.00;;
16660;SDS011;8444;52.012;5.048;2022-09-09T07:50:51;5.57;;;2.42;;
16660;SDS011;8444;52.012;5.048;2022-09-09T07:53:16;3.50;;;2.17;;
16660;SDS011;8444;52.012;5.048;2022-09-09T07:55:41;3.10;;;2.50;;
16660;SDS011;8444;52.012;5.048;2022-09-09T07:58:07;3.88;;;2.13;;
16660;SDS011;8444;52.012;5.048;2022-09-09T08:00:32;4.77;;;2.03;;
16660;SDS011;8444;52.012;5.048;2022-09-09T08:02:58;5.43;;;2.10;;
16660;SDS011;8444;52.012;5.048;2022-09-09T08:05:24;6.00;;;2.00;;
16660;SDS011;8444;52.012;5.048;2022-09-09T08:07:50;6.20;;;2.22;;
16660;SDS011;8444;52.012;5.048;2022-09-09T08:10:15;4.93;;;1.90;;
16660;SDS011;8444;52.012;5.048;2022-09-09T08:12:40;3.78;;;1.83;;
16660;SDS011;8444;52.012;5.048;2022-09-09T08:15:06;4.88;;;1.77;;
16660;SDS011;8444;52.012;5.048;2022-09-09T08:17:31;5.22;;;2.08;;
16660;SDS011;8444;52.012;5.048;2022-09-09T08:19:56;6.17;;;2.27;;
16660;SDS011;8444;52.012;5.048;2022-09-09T08:22:21;5.93;;;2.30;;
16660;SDS011;8444;52.012;5.048;2022-09-09T08:24:47;4.57;;;1.70;;
16660;SDS011;8444;52.012;5.048;2022-09-09T08:27:12;5.35;;;3.15;;
16660;SDS011;8444;52.012;5.048;2022-09-09T08:29:37;7.30;;;2.10;;
16660;SDS011;8444;52.012;5.048;2022-09-09T08:32:02;5.60;;;2.10;;
16660;SDS011;8444;52.012;5.048;2022-09-09T08:34:28;6.40;;;2.08;;
16660;SDS011;8444;52.012;5.048;2022-09-09T08:36:55;6.97;;;1.83;;
16660;SDS011;8444;52.012;5.048;2022-09-09T08:39:21;3.95;;;1.70;;
16660;SDS011;8444;52.012;5.048;2022-09-09T08:52:14;4.68;;;1.90;;
16660;SDS011;8444;52.012;5.048;2022-09-09T08:54:41;5.47;;;2.33;;
16660;SDS011;8444;52.012;5.048;2022-09-09T08:57:07;5.07;;;2.10;;
16660;SDS011;8444;52.012;5.048;2022-09-09T08:59:36;7.70;;;3.13;;
16660;SDS011;8444;52.012;5.048;2022-09-09T09:02:05;2.70;;;1.80;;
16660;SDS011;8444;52.012;5.048;2022-09-09T09:04:49;7.35;;;2.60;;
16660;SDS011;8444;52.012;5.048;2022-09-09T09:12:21;5.55;;;1.70;;
16660;SDS011;8444;52.012;5.048;2022-09-09T09:14:48;3.83;;;1.65;;
16660;SDS011;8444;52.012;5.048;2022-09-09T09:17:20;5.30;;;2.30;;
16660;SDS011;8444;52.012;5.048;2022-09-09T09:19:47;3.85;;;1.80;;
16660;SDS011;8444;52.012;5.048;2022-09-09T09:29:50;7.60;;;1.98;;
16660;SDS011;8444;52.012;5.048;2022-09-09T09:32:18;3.83;;;2.10;;
16660;SDS011;8444;52.012;5.048;2022-09-09T09:34:48;5.95;;;2.35;;
16660;SDS011;8444;52.012;5.048;2022-09-09T09:37:17;5.38;;;1.88;;
16660;SDS011;8444;52.012;5.048;2022-09-09T09:39:45;9.07;;;2.75;;
16660;SDS011;8444;52.012;5.048;2022-09-09T09:42:11;4.82;;;2.10;;
16660;SDS011;8444;52.012;5.048;2022-09-09T09:44:39;6.20;;;2.15;;
16660;SDS011;8444;52.012;5.048;2022-09-09T09:47:06;4.07;;;2.30;;
16660;SDS011;8444;52.012;5.048;2022-09-09T09:49:31;5.30;;;2.00;;
16660;SDS011;8444;52.012;5.048;2022-09-09T09:52:00;4.38;;;1.98;;
16660;SDS011;8444;52.012;5.048;2022-09-09T09:54:28;6.72;;;1.70;;
16660;SDS011;8444;52.012;5.048;2022-09-09T09:56:54;5.10;;;2.03;;
16660;SDS011;8444;52.012;5.048;2022-09-09T09:59:33;4.40;;;1.70;;
16660;SDS011;8444;52.012;5.048;2022-09-09T10:02:36;6.65;;;2.00;;
16660;SDS011;8444;52.012;5.048;2022-09-09T10:07:36;6.82;;;1.80;;
16660;SDS011;8444;52.012;5.048;2022-09-09T10:10:02;8.30;;;2.22;;
16660;SDS011;8444;52.012;5.048;2022-09-09T10:12:34;7.57;;;2.47;;
16660;SDS011;8444;52.012;5.048;2022-09-09T10:22:37;6.07;;;1.92;;
16660;SDS011;8444;52.012;5.048;2022-09-09T10:25:22;3.28;;;1.80;;
16660;SDS011;8444;52.012;5.048;2022-09-09T10:30:56;8.88;;;2.30;;
16660;SDS011;8444;52.012;5.048;2022-09-09T10:36:21;20.08;;;3.15;;
16660;SDS011;8444;52.012;5.048;2022-09-09T10:39:00;5.28;;;1.80;;
16660;SDS011;8444;52.012;5.048;2022-09-09T10:44:18;3.25;;;1.30;;
16660;SDS011;8444;52.012;5.048;2022-09-09T10:51:53;4.32;;;1.50;;
16660;SDS011;8444;52.012;5.048;2022-09-09T10:57:08;3.80;;;1.75;;
16660;SDS011;8444;52.012;5.048;2022-09-09T10:59:40;2.88;;;1.50;;
16660;SDS011;8444;52.012;5.048;2022-09-09T11:04:40;5.63;;;1.63;;
16660;SDS011;8444;52.012;5.048;2022-09-09T11:07:08;4.43;;;1.80;;
16660;SDS011;8444;52.012;5.048;2022-09-09T11:09:36;5.85;;;1.52;;
16660;SDS011;8444;52.012;5.048;2022-09-09T11:12:03;2.85;;;1.48;;
16660;SDS011;8444;52.012;5.048;2022-09-09T11:14:29;2.92;;;1.80;;
16660;SDS011;8444;52.012;5.048;2022-09-09T11:17:00;3.45;;;1.67;;
16660;SDS011;8444;52.012;5.048;2022-09-09T11:22:46;7.70;;;3.13;;
16660;SDS011;8444;52.012;5.048;2022-09-09T11:24:57;5.03;;;1.75;;
16660;SDS011;8444;52.012;5.048;2022-09-09T11:27:29;3.92;;;1.83;;
16660;SDS011;8444;52.012;5.048;2022-09-09T11:30:14;3.58;;;1.60;;
16660;SDS011;8444;52.012;5.048;2022-09-09T11:33:03;2.28;;;1.52;;
16660;SDS011;8444;52.012;5.048;2022-09-09T11:38:15;3.30;;;1.52;;
16660;SDS011;8444;52.012;5.048;2022-09-09T11:40:41;5.13;;;2.00;;
16660;SDS011;8444;52.012;5.048;2022-09-09T11:45:34;5.35;;;2.40;;
16660;SDS011;8444;52.012;5.048;2022-09-09T11:48:01;2.30;;;2.03;;
16660;SDS011;8444;52.012;5.048;2022-09-09T11:50:28;3.35;;;2.10;;
16660;SDS011;8444;52.012;5.048;2022-09-09T11:53:05;3.17;;;1.90;;
16660;SDS011;8444;52.012;5.048;2022-09-09T11:55:40;4.68;;;1.85;;
16660;SDS011;8444;52.012;5.048;2022-09-09T11:58:05;3.22;;;1.67;;
16660;SDS011;8444;52.012;5.048;2022-09-09T12:00:38;3.85;;;2.00;;
16660;SDS011;8444;52.012;5.048;2022-09-09T12:03:05;4.32;;;2.15;;
16660;SDS011;8444;52.012;5.048;2022-09-09T12:05:40;3.75;;;1.77;;
16660;SDS011;8444;52.012;5.048;2022-09-09T12:08:09;4.60;;;1.98;;
16660;SDS011;8444;52.012;5.048;2022-09-09T12:10:35;5.70;;;1.65;;
16660;SDS011;8444;52.012;5.048;2022-09-09T12:13:16;3.20;;;1.77;;
16660;SDS011;8444;52.012;5.048;2022-09-09T12:15:49;3.00;;;1.80;;
16660;SDS011;8444;52.012;5.048;2022-09-09T12:18:15;4.57;;;2.60;;
16660;SDS011;8444;52.012;5.048;2022-09-09T12:21:33;5.43;;;1.90;;
16660;SDS011;8444;52.012;5.048;2022-09-09T12:26:27;4.07;;;1.73;;
16660;SDS011;8444;52.012;5.048;2022-09-09T12:28:57;2.67;;;1.70;;
16660;SDS011;8444;52.012;5.048;2022-09-09T12:34:38;3.35;;;1.88;;
16660;SDS011;8444;52.012;5.048;2022-09-09T12:39:54;3.38;;;1.80;;
16660;SDS011;8444;52.012;5.048;2022-09-09T12:42:20;3.35;;;1.88;;
16660;SDS011;8444;52.012;5.048;2022-09-09T12:44:55;4.53;;;2.08;;
16660;SDS011;8444;52.012;5.048;2022-09-09T12:47:22;4.82;;;1.80;;
16660;SDS011;8444;52.012;5.048;2022-09-09T12:49:48;3.63;;;1.67;;
16660;SDS011;8444;52.012;5.048;2022-09-09T12:52:17;7.15;;;2.85;;
16660;SDS011;8444;52.012;5.048;2022-09-09T12:54:45;3.92;;;1.60;;
16660;SDS011;8444;52.012;5.048;2022-09-09T12:57:12;3.15;;;1.88;;
16660;SDS011;8444;52.012;5.048;2022-09-09T12:59:38;2.60;;;1.50;;
16660;SDS011;8444;52.012;5.048;2022-09-09T13:02:18;4.25;;;1.83;;
16660;SDS011;8444;52.012;5.048;2022-09-09T13:04:44;3.40;;;1.63;;
16660;SDS011;8444;52.012;5.048;2022-09-09T13:07:10;3.92;;;1.52;;
16660;SDS011;8444;52.012;5.048;2022-09-09T13:09:36;4.07;;;1.73;;
16660;SDS011;8444;52.012;5.048;2022-09-09T13:12:02;3.63;;;1.83;;
16660;SDS011;8444;52.012;5.048;2022-09-09T13:14:31;5.63;;;2.53;;
16660;SDS011;8444;52.012;5.048;2022-09-09T13:17:01;4.85;;;2.05;;
16660;SDS011;8444;52.012;5.048;2022-09-09T13:19:29;5.90;;;2.05;;
16660;SDS011;8444;52.012;5.048;2022-09-09T13:21:56;3.75;;;2.30;;
16660;SDS011;8444;52.012;5.048;2022-09-09T13:24:26;4.65;;;2.03;;
16660;SDS011;8444;52.012;5.048;2022-09-09T13:26:55;4.97;;;2.20;;
16660;SDS011;8444;52.012;5.048;2022-09-09T13:29:21;6.30;;;1.92;;
16660;SDS011;8444;52.012;5.048;2022-09-09T13:31:46;5.80;;;2.42;;
16660;SDS011;8444;52.012;5.048;2022-09-09T13:34:13;3.35;;;2.05;;
16660;SDS011;8444;52.012;5.048;2022-09-09T13:36:39;4.18;;;2.78;;
16660;SDS011;8444;52.012;5.048;2022-09-09T13:39:13;3.92;;;2.58;;
16660;SDS011;8444;52.012;5.048;2022-09-09T13:41:43;3.53;;;2.20;;
16660;SDS011;8444;52.012;5.048;2022-09-09T13:44:42;4.63;;;2.53;;
16660;SDS011;8444;52.012;5.048;2022-09-09T13:49:26;3.57;;;2.60;;
16660;SDS011;8444;52.012;5.048;2022-09-09T13:52:02;6.75;;;3.63;;
16660;SDS011;8444;52.012;5.048;2022-09-09T13:54:27;5.90;;;3.58;;
16660;SDS011;8444;52.012;5.048;2022-09-09T13:56:52;3.60;;;2.17;;
16660;SDS011;8444;52.012;5.048;2022-09-09T13:59:19;6.95;;;3.13;;
16660;SDS011;8444;52.012;5.048;2022-09-09T14:01:49;6.50;;;3.25;;
16660;SDS011;8444;52.012;5.048;2022-09-09T14:04:14;5.97;;;2.80;;
16660;SDS011;8444;52.012;5.048;2022-09-09T14:06:40;5.65;;;4.40;;
16660;SDS011;8444;52.012;5.048;2022-09-09T14:09:06;3.50;;;3.03;;
16660;SDS011;8444;52.012;5.048;2022-09-09T14:11:32;4.10;;;3.08;;
16660;SDS011;8444;52.012;5.048;2022-09-09T14:13:57;2.92;;;2.45;;
16660;SDS011;8444;52.012;5.048;2022-09-09T14:16:22;8.18;;;2.70;;
16660;SDS011;8444;52.012;5.048;2022-09-09T14:18:47;6.90;;;2.72;;
16660;SDS011;8444;52.012;5.048;2022-09-09T14:21:13;5.03;;;2.92;;
16660;SDS011;8444;52.012;5.048;2022-09-09T14:23:39;2.92;;;2.13;;
16660;SDS011;8444;52.012;5.048;2022-09-09T14:26:05;2.97;;;1.35;;
16660;SDS011;8444;52.012;5.048;2022-09-09T14:28:31;1.35;;;1.00;;
16660;SDS011;8444;52.012;5.048;2022-09-09T14:30:58;2.03;;;1.30;;
16660;SDS011;8444;52.012;5.048;2022-09-09T14:33:24;2.97;;;1.50;;
16660;SDS011;8444;52.012;5.048;2022-09-09T14:35:54;1.40;;;1.10;;
16660;SDS011;8444;52.012;5.048;2022-09-09T14:38:20;2.35;;;0.85;;
16660;SDS011;8444;52.012;5.048;2022-09-09T14:40:45;1.23;;;0.70;;
16660;SDS011;8444;52.012;5.048;2022-09-09T14:43:11;1.42;;;0.93;;
16660;SDS011;8444;52.012;5.048;2022-09-09T14:45:37;1.17;;;0.90;;
16660;SDS011;8444;52.012;5.048;2022-09-09T14:48:03;2.35;;;1.17;;
16660;SDS011;8444;52.012;5.048;2022-09-09T14:50:28;1.83;;;1.10;;
16660;SDS011;8444;52.012;5.048;2022-09-09T14:52:53;3.50;;;1.65;;
16660;SDS011;8444;52.012;5.048;2022-09-09T14:55:18;4.47;;;2.05;;
16660;SDS011;8444;52.012;5.048;2022-09-09T14:57:44;3.25;;;1.60;;
16660;SDS011;8444;52.012;5.048;2022-09-09T15:00:10;3.35;;;1.50;;
16660;SDS011;8444;52.012;5.048;2022-09-09T15:02:36;3.00;;;1.30;;
16660;SDS011;8444;52.012;5.048;2022-09-09T15:05:01;2.83;;;1.30;;
16660;SDS011;8444;52.012;5.048;2022-09-09T15:07:27;2.90;;;1.73;;
16660;SDS011;8444;52.012;5.048;2022-09-09T15:09:53;2.03;;;0.90;;
16660;SDS011;8444;52.012;5.048;2022-09-09T15:12:19;2.28;;;1.23;;
16660;SDS011;8444;52.012;5.048;2022-09-09T15:14:45;2.63;;;1.02;;
16660;SDS011;8444;52.012;5.048;2022-09-09T15:17:10;2.47;;;1.30;;
16660;SDS011;8444;52.012;5.048;2022-09-09T15:19:36;2.58;;;1.02;;
16660;SDS011;8444;52.012;5.048;2022-09-09T15:22:01;2.42;;;1.20;;
16660;SDS011;8444;52.012;5.048;2022-09-09T15:24:26;4.57;;;1.25;;
16660;SDS011;8444;52.012;5.048;2022-09-09T15:26:52;1.07;;;0.87;;
16660;SDS011;8444;52.012;5.048;2022-09-09T15:29:18;3.30;;;1.60;;
16660;SDS011;8444;52.012;5.048;2022-09-09T15:31:43;2.05;;;1.27;;
16660;SDS011;8444;52.012;5.048;2022-09-09T15:34:09;1.55;;;0.93;;
16660;SDS011;8444;52.012;5.048;2022-09-09T15:36:35;2.58;;;1.10;;
16660;SDS011;8444;52.012;5.048;2022-09-09T15:39:01;4.45;;;1.40;;
16660;SDS011;8444;52.012;5.048;2022-09-09T15:41:27;4.00;;;1.42;;
16660;SDS011;8444;52.012;5.048;2022-09-09T15:43:54;3.85;;;1.00;;
16660;SDS011;8444;52.012;5.048;2022-09-09T15:46:29;1.95;;;1.20;;
16660;SDS011;8444;52.012;5.048;2022-09-09T15:48:55;2.13;;;1.33;;
16660;SDS011;8444;52.012;5.048;2022-09-09T15:51:21;3.67;;;1.15;;
16660;SDS011;8444;52.012;5.048;2022-09-09T15:53:46;3.70;;;1.10;;
16660;SDS011;8444;52.012;5.048;2022-09-09T15:56:12;4.97;;;1.67;;
16660;SDS011;8444;52.012;5.048;2022-09-09T15:58:37;3.23;;;1.27;;
16660;SDS011;8444;52.012;5.048;2022-09-09T16:01:03;3.85;;;1.85;;
16660;SDS011;8444;52.012;5.048;2022-09-09T16:03:29;4.75;;;1.55;;
16660;SDS011;8444;52.012;5.048;2022-09-09T16:05:54;6.13;;;2.85;;
16660;SDS011;8444;52.012;5.048;2022-09-09T16:08:20;3.80;;;2.00;;
16660;SDS011;8444;52.012;5.048;2022-09-09T16:10:45;3.27;;;1.60;;
16660;SDS011;8444;52.012;5.048;2022-09-09T16:13:10;3.88;;;2.15;;
16660;SDS011;8444;52.012;5.048;2022-09-09T16:15:38;2.33;;;1.42;;
16660;SDS011;8444;52.012;5.048;2022-09-09T16:18:03;2.10;;;1.27;;
16660;SDS011;8444;52.012;5.048;2022-09-09T16:20:28;5.32;;;1.58;;
16660;SDS011;8444;52.012;5.048;2022-09-09T16:22:53;2.83;;;1.40;;
16660;SDS011;8444;52.012;5.048;2022-09-09T16:25:19;6.65;;;3.10;;
16660;SDS011;8444;52.012;5.048;2022-09-09T16:27:44;2.97;;;1.80;;
16660;SDS011;8444;52.012;5.048;2022-09-09T16:30:09;4.10;;;1.80;;
16660;SDS011;8444;52.012;5.048;2022-09-09T16:32:35;6.07;;;1.83;;
16660;SDS011;8444;52.012;5.048;2022-09-09T16:35:00;4.80;;;1.95;;
16660;SDS011;8444;52.012;5.048;2022-09-09T16:37:25;3.60;;;1.85;;
16660;SDS011;8444;52.012;5.048;2022-09-09T16:39:50;4.03;;;1.73;;
16660;SDS011;8444;52.012;5.048;2022-09-09T16:42:16;3.20;;;1.70;;
16660;SDS011;8444;52.012;5.048;2022-09-09T16:44:41;4.53;;;2.65;;
16660;SDS011;8444;52.012;5.048;2022-09-09T16:47:07;2.03;;;1.70;;
16660;SDS011;8444;52.012;5.048;2022-09-09T16:49:32;3.27;;;2.23;;
16660;SDS011;8444;52.012;5.048;2022-09-09T16:51:58;3.33;;;1.57;;